Roberts, Wisconsin
Current Conditions -  °F | °C
As of 8:15 PM on Saturday 22 Nov 2014 (Local Time) from KRNH Reporting Station
Haze Haze  
Wind Chill: 29°   Ceiling: 200
Heat Index: 36°   Visibility: 1.2mi
Dew Point: 36°   Wind: 9mph
Humidity: 100%   Direction: 140°SE
Pressure: 29.6"   Gusts: NA
Location:  44.98°N, 92.56°W
Report Text: KRNH 230215Z AUTO 14008KT 1 1/4SM BR OVC002 02/02 A2960 RMK AO2 T00200020
Loading
Personal Weather Stations






























Interactive Weather Map New forecast layout! Learn more

10-Day Weather Forecast

Advertisements
Track Severe Weather on mobile